Time;durP1;ratioP1;P1;durP2;ratioP2;P2;SDS_P1;SDS_P2;PMS_P1;PMS_P2;Temp;Humidity;BMP_temperature;BMP_pressure;BME280_temperature;BME280_humidity;BME280_pressure;Samples;Min_cycle;Max_cycle;Signal;HPM_P1;HPM_P2
2022/05/13 00:01:51;;;;;;;3.58;1.92;;;;;;;;;;5014784;28;20551;-69
2022/05/13 00:04:19;;;;;;;4.97;1.80;;;;;;;;;;5015578;28;20133;-71
2022/05/13 00:06:48;;;;;;;7.75;2.80;;;;;;;;;;5015126;28;20414;-71
2022/05/13 00:09:15;;;;;;;2.25;2.05;;;;;;;;;;5015404;28;20116;-72
2022/05/13 00:11:44;;;;;;;6.15;2.80;;;;;;;;;;5015343;28;20048;-73
2022/05/13 00:14:13;;;;;;;4.82;2.95;;;;;;;;;;5015242;28;20533;-72
2022/05/13 00:16:41;;;;;;;4.90;2.15;;;;;;;;;;5015457;28;20076;-72
2022/05/13 00:19:11;;;;;;;10.02;3.25;;;;;;;;;;5015276;28;20046;-71
2022/05/13 00:21:39;;;;;;;5.10;2.65;;;;;;;;;;5014579;28;20054;-71
2022/05/13 00:24:09;;;;;;;2.40;2.05;;;;;;;;;;5015259;28;20549;-71
2022/05/13 00:26:38;;;;;;;4.60;3.13;;;;;;;;;;5014960;28;20052;-71
2022/05/13 00:29:08;;;;;;;5.50;2.10;;;;;;;;;;5015041;28;20097;-71
2022/05/13 00:31:38;;;;;;;5.13;2.15;;;;;;;;;;5015291;28;20104;-71
2022/05/13 00:34:07;;;;;;;3.38;2.20;;;;;;;;;;5015257;28;20064;-71
2022/05/13 00:36:37;;;;;;;7.55;2.35;;;;;;;;;;5014686;28;20133;-71
2022/05/13 00:39:07;;;;;;;4.22;2.17;;;;;;;;;;5014925;28;20049;-71
2022/05/13 00:41:36;;;;;;;6.22;2.90;;;;;;;;;;5014479;28;20057;-71
2022/05/13 00:44:07;;;;;;;4.43;2.45;;;;;;;;;;5015523;28;20050;-71
2022/05/13 00:46:35;;;;;;;7.40;2.03;;;;;;;;;;5014915;28;20129;-71
2022/05/13 00:49:06;;;;;;;4.45;2.35;;;;;;;;;;5014901;28;20076;-71
2022/05/13 00:51:38;;;;;;;6.25;2.70;;;;;;;;;;5013251;28;20140;-70
2022/05/13 00:54:07;;;;;;;3.38;1.80;;;;;;;;;;5013290;28;20050;-69
2022/05/13 00:56:36;;;;;;;3.55;2.13;;;;;;;;;;5012675;28;20054;-69
2022/05/13 00:59:06;;;;;;;6.40;2.20;;;;;;;;;;5014924;28;20054;-70
2022/05/13 01:01:35;;;;;;;3.83;2.42;;;;;;;;;;5015180;28;20050;-70
2022/05/13 01:04:08;;;;;;;6.38;2.60;;;;;;;;;;5014156;28;20046;-70
2022/05/13 01:06:37;;;;;;;5.72;2.20;;;;;;;;;;5013314;28;20057;-69
2022/05/13 01:09:06;;;;;;;3.80;3.10;;;;;;;;;;5014238;28;20132;-70
2022/05/13 01:11:36;;;;;;;12.70;3.22;;;;;;;;;;5014348;28;20056;-70
2022/05/13 01:14:08;;;;;;;7.88;2.85;;;;;;;;;;5013313;28;20052;-70
2022/05/13 01:19:25;;;;;;;5.70;3.10;;;;;;;;;;5013802;28;20096;-70
2022/05/13 01:21:53;;;;;;;6.82;2.53;;;;;;;;;;5014057;28;20180;-70
2022/05/13 01:24:21;;;;;;;3.60;2.70;;;;;;;;;;5014227;28;20056;-70
2022/05/13 01:26:49;;;;;;;3.88;2.78;;;;;;;;;;5013084;28;20511;-72
2022/05/13 01:29:17;;;;;;;6.53;2.83;;;;;;;;;;5014254;28;20498;-72
2022/05/13 01:31:45;;;;;;;5.57;3.03;;;;;;;;;;5013793;28;20060;-72
2022/05/13 01:34:14;;;;;;;4.55;3.20;;;;;;;;;;5014219;28;20080;-72
2022/05/13 01:36:42;;;;;;;5.15;2.53;;;;;;;;;;5013476;28;20053;-72
2022/05/13 01:39:10;;;;;;;3.92;2.75;;;;;;;;;;5029126;28;20519;-72
2022/05/13 01:41:38;;;;;;;2.92;2.65;;;;;;;;;;5013489;28;20050;-72
2022/05/13 01:44:05;;;;;;;5.82;2.45;;;;;;;;;;5014009;28;20054;-72
2022/05/13 01:46:34;;;;;;;7.80;3.05;;;;;;;;;;5013157;28;20527;-72
2022/05/13 01:49:02;;;;;;;5.35;3.10;;;;;;;;;;5013858;28;20069;-72
2022/05/13 01:51:31;;;;;;;2.33;2.15;;;;;;;;;;5013994;28;20053;-72
2022/05/13 01:53:59;;;;;;;5.45;3.40;;;;;;;;;;5013677;28;20054;-72
2022/05/13 01:56:27;;;;;;;4.63;2.97;;;;;;;;;;5013968;28;20424;-72
2022/05/13 01:58:57;;;;;;;4.40;2.30;;;;;;;;;;5013193;28;20034;-71
2022/05/13 02:01:25;;;;;;;4.40;2.45;;;;;;;;;;5014177;28;20053;-70
2022/05/13 02:03:54;;;;;;;5.18;2.95;;;;;;;;;;5013424;28;20493;-70
2022/05/13 02:06:25;;;;;;;6.15;3.03;;;;;;;;;;5013760;28;20078;-70
2022/05/13 02:08:56;;;;;;;4.97;2.42;;;;;;;;;;5013171;28;20085;-70
2022/05/13 02:11:25;;;;;;;2.83;2.50;;;;;;;;;;5013929;28;20120;-70
2022/05/13 02:13:54;;;;;;;2.80;2.38;;;;;;;;;;5012273;28;20049;-70
2022/05/13 02:16:22;;;;;;;5.93;2.30;;;;;;;;;;5013675;28;20064;-70
2022/05/13 02:18:51;;;;;;;7.63;2.50;;;;;;;;;;5013103;28;20100;-70
2022/05/13 02:21:22;;;;;;;3.53;2.55;;;;;;;;;;5013198;28;20505;-70
2022/05/13 02:23:52;;;;;;;8.77;3.65;;;;;;;;;;5013124;28;20050;-70
2022/05/13 02:26:22;;;;;;;5.63;2.80;;;;;;;;;;5013014;28;20210;-72
2022/05/13 02:28:51;;;;;;;6.85;3.97;;;;;;;;;;5013764;28;20050;-72
2022/05/13 02:31:20;;;;;;;3.13;2.70;;;;;;;;;;5013437;28;20049;-72
2022/05/13 02:33:49;;;;;;;4.72;2.40;;;;;;;;;;5013604;28;20049;-71
2022/05/13 02:36:17;;;;;;;5.82;2.88;;;;;;;;;;5013233;28;20042;-71
2022/05/13 02:38:46;;;;;;;2.42;2.22;;;;;;;;;;5013039;28;20050;-71
2022/05/13 02:41:17;;;;;;;5.32;2.90;;;;;;;;;;5013475;28;20046;-71
2022/05/13 02:43:55;;;;;;;7.53;2.70;;;;;;;;;;5013206;28;20096;-72
2022/05/13 02:46:25;;;;;;;6.35;2.17;;;;;;;;;;5016389;28;20049;-71
2022/05/13 02:48:53;;;;;;;6.20;2.40;;;;;;;;;;5016906;28;20096;-71
2022/05/13 02:51:23;;;;;;;8.98;2.10;;;;;;;;;;5017557;28;20045;-71
2022/05/13 02:53:53;;;;;;;3.53;2.10;;;;;;;;;;5016699;28;20390;-73
2022/05/13 02:56:22;;;;;;;3.25;1.90;;;;;;;;;;5016994;28;20046;-72
2022/05/13 02:58:52;;;;;;;8.70;2.10;;;;;;;;;;5016436;28;20053;-72
2022/05/13 03:01:20;;;;;;;2.90;2.30;;;;;;;;;;5017298;28;20068;-72
2022/05/13 03:03:50;;;;;;;4.28;2.30;;;;;;;;;;5016913;28;20088;-72
2022/05/13 03:06:18;;;;;;;5.70;2.60;;;;;;;;;;5016252;28;20153;-72
2022/05/13 03:08:49;;;;;;;6.75;2.83;;;;;;;;;;5016916;28;20049;-72
2022/05/13 03:11:20;;;;;;;5.07;3.08;;;;;;;;;;5016600;28;20477;-71
2022/05/13 03:13:49;;;;;;;2.95;1.70;;;;;;;;;;5017042;28;20417;-71
2022/05/13 03:16:21;;;;;;;4.97;1.83;;;;;;;;;;5016432;28;20050;-71
2022/05/13 03:19:11;;;;;;;6.38;1.80;;;;;;;;;;5016670;28;20137;-72
2022/05/13 03:21:39;;;;;;;4.82;2.17;;;;;;;;;;5015926;28;20129;-72
2022/05/13 03:24:08;;;;;;;5.57;2.28;;;;;;;;;;5015906;28;20073;-72
2022/05/13 03:26:36;;;;;;;3.75;1.60;;;;;;;;;;5015932;28;20046;-72
2022/05/13 03:29:04;;;;;;;5.70;2.38;;;;;;;;;;5016192;28;20501;-72
2022/05/13 03:31:34;;;;;;;2.75;1.77;;;;;;;;;;5016255;28;20073;-72
2022/05/13 03:34:02;;;;;;;2.97;2.33;;;;;;;;;;5015901;28;20412;-72
2022/05/13 03:36:32;;;;;;;3.60;2.10;;;;;;;;;;5016157;28;20103;-72
2022/05/13 03:38:59;;;;;;;6.50;2.28;;;;;;;;;;5015709;28;20505;-72
2022/05/13 03:41:28;;;;;;;6.82;3.05;;;;;;;;;;5015908;28;20076;-72
2022/05/13 03:43:58;;;;;;;4.32;2.30;;;;;;;;;;5015372;28;20128;-72
2022/05/13 03:46:26;;;;;;;2.10;1.90;;;;;;;;;;5015949;28;20090;-72
2022/05/13 03:48:56;;;;;;;8.10;2.15;;;;;;;;;;5015534;28;20049;-72
2022/05/13 03:51:24;;;;;;;7.30;3.20;;;;;;;;;;5016033;28;20050;-72
2022/05/13 03:53:53;;;;;;;6.28;2.30;;;;;;;;;;5015497;28;20061;-71
2022/05/13 03:56:21;;;;;;;7.28;2.50;;;;;;;;;;5014444;28;20046;-72
2022/05/13 03:58:50;;;;;;;4.82;2.72;;;;;;;;;;5015267;28;20143;-71
2022/05/13 04:01:20;;;;;;;5.72;2.50;;;;;;;;;;5013873;28;20042;-72
2022/05/13 04:03:49;;;;;;;9.80;2.88;;;;;;;;;;5014589;28;20053;-71
2022/05/13 04:09:07;;;;;;;5.82;2.15;;;;;;;;;;5007189;28;20058;-70
2022/05/13 04:11:37;;;;;;;7.35;2.72;;;;;;;;;;5014620;28;20046;-70
2022/05/13 04:16:55;;;;;;;7.25;2.28;;;;;;;;;;5019403;28;20432;-71
2022/05/13 04:19:24;;;;;;;11.35;4.03;;;;;;;;;;5014588;28;20041;-71
2022/05/13 04:21:53;;;;;;;7.30;2.47;;;;;;;;;;5014218;28;20579;-71
2022/05/13 04:24:22;;;;;;;5.57;2.70;;;;;;;;;;5002026;28;20042;-71
2022/05/13 04:26:50;;;;;;;9.60;2.80;;;;;;;;;;5012974;28;20103;-71
2022/05/13 04:29:18;;;;;;;5.65;2.75;;;;;;;;;;5013629;28;20528;-71
2022/05/13 04:31:48;;;;;;;2.97;1.85;;;;;;;;;;5014023;28;20060;-71
2022/05/13 04:34:16;;;;;;;6.55;2.05;;;;;;;;;;5014136;28;20503;-71
2022/05/13 04:36:44;;;;;;;11.30;2.70;;;;;;;;;;5010124;28;20486;-70
2022/05/13 04:39:13;;;;;;;4.97;2.13;;;;;;;;;;5013756;28;20060;-70
2022/05/13 04:44:27;;;;;;;6.05;2.08;;;;;;;;;;5012025;28;20116;-71
2022/05/13 04:46:56;;;;;;;8.90;2.20;;;;;;;;;;5013301;28;20046;-71
2022/05/13 04:49:24;;;;;;;8.05;2.75;;;;;;;;;;5013675;28;20050;-71
2022/05/13 04:51:55;;;;;;;5.38;2.08;;;;;;;;;;5014007;28;20060;-71
2022/05/13 04:54:23;;;;;;;5.65;2.30;;;;;;;;;;5014025;28;20053;-71
2022/05/13 04:56:52;;;;;;;3.80;2.47;;;;;;;;;;5013764;28;20077;-71
2022/05/13 04:59:21;;;;;;;3.90;2.30;;;;;;;;;;5013715;28;20164;-71
2022/05/13 05:01:51;;;;;;;4.97;2.65;;;;;;;;;;5013202;28;20049;-71
2022/05/13 05:04:18;;;;;;;3.47;2.17;;;;;;;;;;5013999;28;20121;-71
2022/05/13 05:06:48;;;;;;;6.15;2.25;;;;;;;;;;5013813;28;20054;-71
2022/05/13 05:09:15;;;;;;;6.55;3.33;;;;;;;;;;5013206;28;20053;-71
2022/05/13 05:11:44;;;;;;;7.03;2.30;;;;;;;;;;5020859;28;20060;-71
2022/05/13 05:14:11;;;;;;;11.32;2.42;;;;;;;;;;5014153;28;20052;-71
2022/05/13 05:16:41;;;;;;;7.47;2.35;;;;;;;;;;5012943;28;20137;-71
2022/05/13 05:19:10;;;;;;;4.65;2.72;;;;;;;;;;5012850;28;20132;-72
2022/05/13 05:21:37;;;;;;;6.00;2.78;;;;;;;;;;5013171;28;20100;-71
2022/05/13 05:24:06;;;;;;;12.23;2.75;;;;;;;;;;5013070;28;20124;-69
2022/05/13 05:26:34;;;;;;;4.10;2.50;;;;;;;;;;5009449;28;20172;-72
2022/05/13 05:29:02;;;;;;;5.95;2.75;;;;;;;;;;5012720;28;20046;-70
2022/05/13 05:31:31;;;;;;;10.20;2.72;;;;;;;;;;5014199;28;20132;-71
2022/05/13 05:34:00;;;;;;;8.50;3.22;;;;;;;;;;5013125;28;20168;-70
2022/05/13 05:36:29;;;;;;;4.47;2.58;;;;;;;;;;5013238;28;20065;-71
2022/05/13 05:38:57;;;;;;;14.75;3.50;;;;;;;;;;5013177;28;20042;-69
2022/05/13 05:41:27;;;;;;;4.78;2.33;;;;;;;;;;5013222;28;20057;-68
2022/05/13 05:43:56;;;;;;;15.00;3.42;;;;;;;;;;5005389;28;20041;-68
2022/05/13 05:46:26;;;;;;;8.90;2.42;;;;;;;;;;5011144;28;20421;-68
2022/05/13 05:48:55;;;;;;;12.23;2.55;;;;;;;;;;5012521;28;20069;-68
2022/05/13 05:51:23;;;;;;;13.00;2.80;;;;;;;;;;5012996;28;20068;-68
2022/05/13 05:59:28;;;;;;;8.50;2.97;;;;;;;;;;5012665;28;20497;-68
2022/05/13 06:01:58;;;;;;;8.38;3.40;;;;;;;;;;5011476;28;20061;-67
2022/05/13 06:04:29;;;;;;;11.05;4.00;;;;;;;;;;5012806;28;20042;-68
2022/05/13 06:06:57;;;;;;;10.18;3.95;;;;;;;;;;5011110;28;20129;-73
2022/05/13 06:09:28;;;;;;;22.25;5.60;;;;;;;;;;5013341;28;20091;-72
2022/05/13 06:11:56;;;;;;;7.90;3.80;;;;;;;;;;5013518;28;20046;-72
2022/05/13 06:14:27;;;;;;;9.00;4.40;;;;;;;;;;5013097;28;20110;-73
2022/05/13 06:16:56;;;;;;;11.88;4.68;;;;;;;;;;5009454;28;20070;-73
2022/05/13 06:19:24;;;;;;;8.75;4.10;;;;;;;;;;5006406;28;20450;-72
2022/05/13 06:21:56;;;;;;;10.38;5.57;;;;;;;;;;5031559;28;20480;-72
2022/05/13 06:24:24;;;;;;;7.22;4.15;;;;;;;;;;5017118;28;20053;-71
2022/05/13 06:26:53;;;;;;;9.55;5.32;;;;;;;;;;5017048;28;20053;-71
2022/05/13 06:29:24;;;;;;;9.88;4.53;;;;;;;;;;5017256;28;20153;-71
2022/05/13 06:31:53;;;;;;;11.32;5.70;;;;;;;;;;5016963;28;20469;-72
2022/05/13 06:34:22;;;;;;;9.40;6.75;;;;;;;;;;5017116;28;20460;-72
2022/05/13 06:36:50;;;;;;;9.77;4.70;;;;;;;;;;5015154;28;20129;-72
2022/05/13 06:39:21;;;;;;;9.55;5.40;;;;;;;;;;5015322;28;20050;-72
2022/05/13 06:41:48;;;;;;;11.35;5.15;;;;;;;;;;5014986;28;20058;-72
2022/05/13 06:44:18;;;;;;;8.45;5.43;;;;;;;;;;5015792;28;20045;-72
2022/05/13 06:46:47;;;;;;;14.35;5.00;;;;;;;;;;5015743;28;20060;-72
2022/05/13 06:49:17;;;;;;;10.88;7.05;;;;;;;;;;5015938;28;20053;-72
2022/05/13 06:51:46;;;;;;;11.05;4.90;;;;;;;;;;5016075;28;20163;-71
2022/05/13 06:54:14;;;;;;;9.05;5.82;;;;;;;;;;5016443;28;20538;-72
2022/05/13 06:56:44;;;;;;;14.13;5.13;;;;;;;;;;5016847;28;20054;-75
2022/05/13 06:59:13;;;;;;;10.23;5.05;;;;;;;;;;5016793;28;20386;-74
2022/05/13 07:01:41;;;;;;;9.05;5.22;;;;;;;;;;5016836;28;20042;-75
2022/05/13 07:04:09;;;;;;;10.80;4.85;;;;;;;;;;5016699;28;20053;-74
2022/05/13 07:06:37;;;;;;;10.75;5.35;;;;;;;;;;5015802;28;20156;-74
2022/05/13 07:09:06;;;;;;;14.43;4.72;;;;;;;;;;5016263;28;20057;-74
2022/05/13 07:11:34;;;;;;;14.35;5.03;;;;;;;;;;5016827;28;20061;-74
2022/05/13 07:14:02;;;;;;;9.90;4.85;;;;;;;;;;5016747;28;20132;-75
2022/05/13 07:16:31;;;;;;;7.63;4.60;;;;;;;;;;5016705;28;20485;-75
2022/05/13 07:19:04;;;;;;;12.07;5.03;;;;;;;;;;5016889;28;20386;-75
2022/05/13 07:21:33;;;;;;;7.47;4.40;;;;;;;;;;5015922;28;20315;-75
2022/05/13 07:24:04;;;;;;;8.75;3.92;;;;;;;;;;5016756;28;20058;-75
2022/05/13 07:26:32;;;;;;;7.97;4.45;;;;;;;;;;5016200;28;20042;-75
2022/05/13 07:29:00;;;;;;;8.95;4.20;;;;;;;;;;5016883;28;20057;-75
2022/05/13 07:31:29;;;;;;;16.27;6.53;;;;;;;;;;5015535;28;20060;-75
2022/05/13 07:33:57;;;;;;;7.30;4.20;;;;;;;;;;5016109;28;20049;-75
2022/05/13 07:36:25;;;;;;;10.35;4.40;;;;;;;;;;5016665;28;20046;-75
2022/05/13 07:41:41;;;;;;;8.73;4.75;;;;;;;;;;5015868;28;20404;-75
2022/05/13 07:44:10;;;;;;;5.90;4.13;;;;;;;;;;5015959;28;20100;-75
2022/05/13 07:46:39;;;;;;;9.27;4.82;;;;;;;;;;5016260;28;20137;-75
2022/05/13 07:49:07;;;;;;;11.65;4.68;;;;;;;;;;5015947;28;20046;-75
2022/05/13 07:51:35;;;;;;;10.55;4.85;;;;;;;;;;5016008;28;20046;-75
2022/05/13 07:54:05;;;;;;;8.80;3.92;;;;;;;;;;5015638;28;20134;-79
2022/05/13 07:56:32;;;;;;;11.13;4.15;;;;;;;;;;5015624;28;20058;-67
2022/05/13 07:59:02;;;;;;;7.10;4.35;;;;;;;;;;5013174;28;20057;-67
2022/05/13 08:01:31;;;;;;;7.07;4.47;;;;;;;;;;5015280;28;20493;-67
2022/05/13 08:04:00;;;;;;;9.77;3.83;;;;;;;;;;5015523;28;20476;-67
2022/05/13 08:06:32;;;;;;;11.43;5.05;;;;;;;;;;5015139;28;20057;-67
2022/05/13 08:09:01;;;;;;;12.45;4.18;;;;;;;;;;5015773;28;20046;-67
2022/05/13 08:11:29;;;;;;;8.68;3.38;;;;;;;;;;5015104;28;20469;-67
2022/05/13 08:14:03;;;;;;;9.13;2.90;;;;;;;;;;5015572;28;20050;-66
2022/05/13 08:16:33;;;;;;;8.38;3.78;;;;;;;;;;5014933;28;20060;-67
2022/05/13 08:19:03;;;;;;;8.73;4.47;;;;;;;;;;5014831;28;20046;-67
2022/05/13 08:21:31;;;;;;;8.32;3.85;;;;;;;;;;5014517;28;20387;-67
2022/05/13 08:24:01;;;;;;;11.52;4.55;;;;;;;;;;5015279;28;20058;-67
2022/05/13 08:26:28;;;;;;;7.85;4.00;;;;;;;;;;5014870;28;20148;-67
2022/05/13 08:28:56;;;;;;;10.00;4.53;;;;;;;;;;5014733;28;20077;-66
2022/05/13 08:31:23;;;;;;;9.82;4.53;;;;;;;;;;5014667;28;20137;-66
2022/05/13 08:33:52;;;;;;;13.10;4.35;;;;;;;;;;5014719;28;20046;-66
2022/05/13 08:36:21;;;;;;;8.00;4.40;;;;;;;;;;5015127;28;20443;-66
2022/05/13 08:38:50;;;;;;;8.23;4.50;;;;;;;;;;5014393;28;20081;-66
2022/05/13 08:41:52;;;;;;;10.02;4.78;;;;;;;;;;5014946;28;20069;-67
2022/05/13 08:44:21;;;;;;;19.25;4.32;;;;;;;;;;4956587;28;20519;-68
2022/05/13 08:47:10;;;;;;;9.35;4.47;;;;;;;;;;5012854;28;20057;-66
2022/05/13 08:49:47;;;;;;;12.18;4.00;;;;;;;;;;5013023;28;20207;-66
2022/05/13 08:55:19;;;;;;;7.53;3.08;;;;;;;;;;5012920;28;20038;-66
2022/05/13 08:57:49;;;;;;;10.35;4.88;;;;;;;;;;5013176;28;20057;-66
2022/05/13 09:00:29;;;;;;;13.82;3.92;;;;;;;;;;5013909;28;20050;-66
2022/05/13 09:03:04;;;;;;;20.13;4.72;;;;;;;;;;5014972;28;20096;-68
2022/05/13 09:05:37;;;;;;;8.80;4.43;;;;;;;;;;5014176;28;20050;-68
2022/05/13 09:08:06;;;;;;;15.57;3.70;;;;;;;;;;5014154;28;20056;-65
2022/05/13 09:10:47;;;;;;;7.68;4.20;;;;;;;;;;5014283;28;20065;-68
2022/05/13 09:13:27;;;;;;;12.85;4.57;;;;;;;;;;5010130;28;20061;-66
2022/05/13 09:15:55;;;;;;;7.93;3.28;;;;;;;;;;4993441;28;20062;-66
2022/05/13 09:18:58;;;;;;;9.93;3.85;;;;;;;;;;4994004;28;20514;-66
2022/05/13 09:21:27;;;;;;;11.40;3.55;;;;;;;;;;4992963;28;20137;-68
2022/05/13 09:23:56;;;;;;;12.68;3.45;;;;;;;;;;4994338;28;20046;-69
2022/05/13 09:26:28;;;;;;;10.20;3.65;;;;;;;;;;4994239;28;20058;-66
2022/05/13 09:29:10;;;;;;;14.93;4.00;;;;;;;;;;4993731;28;20241;-68
2022/05/13 09:31:44;;;;;;;13.60;3.58;;;;;;;;;;4993346;28;20050;-68
2022/05/13 09:34:15;;;;;;;14.00;4.38;;;;;;;;;;4993062;28;20498;-67
2022/05/13 09:36:43;;;;;;;10.43;3.33;;;;;;;;;;5000022;28;20113;-66
2022/05/13 09:39:24;;;;;;;14.60;3.55;;;;;;;;;;5012975;28;20413;-65
2022/05/13 09:41:54;;;;;;;13.95;4.38;;;;;;;;;;5012994;28;20111;-69
2022/05/13 09:44:27;;;;;;;12.45;5.32;;;;;;;;;;5013064;28;20053;-68
2022/05/13 09:47:13;;;;;;;9.65;4.68;;;;;;;;;;5013571;28;20058;-68
2022/05/13 09:50:02;;;;;;;6.82;3.97;;;;;;;;;;5012703;28;20626;-68
2022/05/13 09:52:36;;;;;;;8.98;3.47;;;;;;;;;;5013019;28;20049;-66
2022/05/13 09:55:16;;;;;;;17.08;4.55;;;;;;;;;;5012550;28;20052;-67
2022/05/13 09:57:50;;;;;;;12.50;3.85;;;;;;;;;;5012082;28;20053;-67
2022/05/13 10:00:26;;;;;;;15.75;3.75;;;;;;;;;;5013425;28;20133;-66
2022/05/13 10:03:09;;;;;;;8.07;4.00;;;;;;;;;;4992478;28;20064;-68
2022/05/13 10:05:38;;;;;;;8.55;3.88;;;;;;;;;;4994208;28;20454;-67
2022/05/13 10:08:09;;;;;;;10.90;4.95;;;;;;;;;;4995900;28;20060;-67
2022/05/13 10:14:32;;;;;;;10.65;5.32;;;;;;;;;;5012592;28;20045;-67
2022/05/13 10:17:17;;;;;;;9.40;3.63;;;;;;;;;;5012319;28;20057;-67
2022/05/13 10:19:50;;;;;;;17.60;5.00;;;;;;;;;;5012828;28;20746;-66
2022/05/13 10:22:22;;;;;;;12.25;4.00;;;;;;;;;;5012615;28;20050;-67
2022/05/13 10:25:12;;;;;;;10.80;3.50;;;;;;;;;;5013845;28;20073;-66
2022/05/13 10:27:50;;;;;;;17.17;3.67;;;;;;;;;;5012929;28;20057;-66
2022/05/13 10:30:42;;;;;;;20.23;4.22;;;;;;;;;;5012452;28;20049;-68
2022/05/13 10:33:47;;;;;;;12.48;3.53;;;;;;;;;;5010544;28;20050;-66
2022/05/13 10:36:18;;;;;;;11.73;3.70;;;;;;;;;;5005947;28;20441;-67
2022/05/13 10:39:07;;;;;;;13.18;3.65;;;;;;;;;;5012635;28;20072;-67
2022/05/13 10:41:47;;;;;;;12.25;3.40;;;;;;;;;;5012282;28;20112;-67
2022/05/13 10:44:31;;;;;;;15.32;3.78;;;;;;;;;;5011850;28;20104;-68
2022/05/13 10:47:02;;;;;;;8.10;2.72;;;;;;;;;;5011925;28;20412;-67
2022/05/13 10:49:38;;;;;;;12.48;3.38;;;;;;;;;;5012512;28;20041;-67
2022/05/13 10:52:22;;;;;;;15.75;3.47;;;;;;;;;;4999736;28;20497;-67
2022/05/13 10:55:01;;;;;;;11.68;3.03;;;;;;;;;;4999941;28;20478;-67
2022/05/13 10:57:45;;;;;;;10.02;3.08;;;;;;;;;;5012619;28;20428;-67
2022/05/13 11:00:15;;;;;;;;;;;;;;;;;;5012889;28;20042;-66
2022/05/13 11:03:14;;;;;;;7.10;3.70;;;;;;;;;;4999147;28;19928;-66
2022/05/13 11:06:00;;;;;;;10.30;3.47;;;;;;;;;;5012651;28;20045;-66
2022/05/13 11:08:56;;;;;;;9.68;3.80;;;;;;;;;;5016442;28;20137;-66
2022/05/13 11:11:41;;;;;;;9.70;3.10;;;;;;;;;;5014356;28;20137;-66
2022/05/13 11:14:32;;;;;;;9.05;3.25;;;;;;;;;;5015105;28;20409;-66
2022/05/13 11:17:07;;;;;;;6.50;2.78;;;;;;;;;;5014086;28;20409;-66
2022/05/13 11:19:40;;;;;;;11.88;3.17;;;;;;;;;;5013462;28;20046;-68
2022/05/13 11:22:27;;;;;;;8.32;3.38;;;;;;;;;;5010870;28;20073;-68
2022/05/13 11:28:41;;;;;;;7.47;2.90;;;;;;;;;;5014039;28;20054;-69
2022/05/13 11:31:25;;;;;;;5.38;3.42;;;;;;;;;;5008292;28;20054;-68
2022/05/13 11:33:56;;;;;;;15.80;3.50;;;;;;;;;;5015718;28;20462;-68
2022/05/13 11:36:45;;;;;;;5.43;2.53;;;;;;;;;;5014924;28;20045;-66
2022/05/13 11:39:38;;;;;;;10.23;2.30;;;;;;;;;;5014824;28;20045;-67
2022/05/13 11:42:17;;;;;;;8.30;2.15;;;;;;;;;;4934264;29;20112;-69
2022/05/13 11:45:09;;;;;;;5.90;2.38;;;;;;;;;;5014320;28;20073;-68
2022/05/13 11:47:59;;;;;;;5.22;2.28;;;;;;;;;;5027962;28;20573;-67
2022/05/13 11:50:30;;;;;;;4.22;2.67;;;;;;;;;;5013986;28;20104;-67
2022/05/13 11:53:00;;;;;;;11.60;2.50;;;;;;;;;;5011684;28;20121;-67
2022/05/13 11:55:43;;;;;;;10.82;3.63;;;;;;;;;;5014719;28;20050;-67
2022/05/13 11:58:49;;;;;;;11.55;3.30;;;;;;;;;;5014266;28;20046;-68
2022/05/13 12:01:38;;;;;;;8.57;2.63;;;;;;;;;;5013483;28;20038;-66
2022/05/13 12:04:14;;;;;;;13.02;3.83;;;;;;;;;;5013921;28;20033;-66
2022/05/13 12:06:49;;;;;;;6.95;2.28;;;;;;;;;;5014494;28;20041;-67
2022/05/13 12:09:43;;;;;;;4.43;1.73;;;;;;;;;;5014282;28;20481;-66
2022/05/13 12:12:49;;;;;;;6.30;2.60;;;;;;;;;;5013772;28;20421;-66
2022/05/13 12:15:32;;;;;;;3.33;1.70;;;;;;;;;;5013828;28;20060;-66
2022/05/13 12:18:07;;;;;;;6.25;2.45;;;;;;;;;;5007659;28;20053;-67
2022/05/13 12:21:28;;;;;;;7.57;2.38;;;;;;;;;;5014231;28;20046;-67
2022/05/13 12:24:02;;;;;;;4.55;1.90;;;;;;;;;;4934916;29;20568;-65
2022/05/13 12:26:51;;;;;;;10.02;2.20;;;;;;;;;;5010896;28;20571;-68
2022/05/13 12:29:32;;;;;;;6.28;2.22;;;;;;;;;;5014608;28;20458;-66
2022/05/13 12:31:59;;;;;;;2.97;2.22;;;;;;;;;;5013973;28;20050;-68
2022/05/13 12:37:41;;;;;;;8.35;1.90;;;;;;;;;;5013392;28;20120;-69
2022/05/13 12:40:24;;;;;;;7.22;2.08;;;;;;;;;;5013353;28;20122;-69
2022/05/13 12:42:55;;;;;;;;;;;;;;;;;;5013451;28;20058;-66
2022/05/13 12:45:40;;;;;;;7.28;2.45;;;;;;;;;;5028978;28;19943;-68
2022/05/13 12:48:08;;;;;;;5.85;2.42;;;;;;;;;;5011146;28;20054;-67
2022/05/13 12:50:49;;;;;;;4.20;2.33;;;;;;;;;;5013797;28;20508;-68
2022/05/13 12:53:29;;;;;;;7.50;2.08;;;;;;;;;;5013435;28;20049;-67
2022/05/13 12:56:15;;;;;;;9.65;2.75;;;;;;;;;;5013052;28;20054;-67
2022/05/13 12:58:47;;;;;;;6.57;2.28;;;;;;;;;;5010994;28;20501;-68
2022/05/13 13:01:16;;;;;;;10.13;2.13;;;;;;;;;;5028486;28;20054;-66
2022/05/13 13:03:47;;;;;;;7.15;2.67;;;;;;;;;;5013489;28;20056;-67
2022/05/13 13:06:20;;;;;;;7.65;2.60;;;;;;;;;;5012269;28;20396;-67
2022/05/13 13:08:52;;;;;;;11.02;3.08;;;;;;;;;;5013092;28;20046;-68
2022/05/13 13:11:26;;;;;;;11.48;3.15;;;;;;;;;;5008683;28;20533;-68
2022/05/13 13:14:05;;;;;;;7.82;2.42;;;;;;;;;;5010796;28;20068;-67
2022/05/13 13:16:47;;;;;;;6.85;2.38;;;;;;;;;;5009995;28;20049;-67
2022/05/13 13:19:23;;;;;;;8.73;2.28;;;;;;;;;;5010474;28;20049;-67
2022/05/13 13:21:59;;;;;;;12.90;2.83;;;;;;;;;;5009342;28;20053;-67
2022/05/13 13:24:33;;;;;;;9.75;2.90;;;;;;;;;;5010093;28;20041;-67
2022/05/13 13:27:03;;;;;;;8.88;2.58;;;;;;;;;;5026364;28;20520;-67
2022/05/13 13:29:35;;;;;;;9.98;2.22;;;;;;;;;;5010890;28;20054;-67
2022/05/13 13:32:07;;;;;;;9.27;2.30;;;;;;;;;;5009964;28;20103;-67
2022/05/13 13:34:47;;;;;;;6.75;2.35;;;;;;;;;;5010395;28;20072;-68
2022/05/13 13:37:20;;;;;;;9.07;2.78;;;;;;;;;;5012235;28;20092;-66
2022/05/13 13:39:57;;;;;;;9.90;2.60;;;;;;;;;;5008384;28;20050;-66
2022/05/13 13:42:33;;;;;;;8.77;3.35;;;;;;;;;;5007813;28;20050;-68
2022/05/13 13:45:10;;;;;;;6.65;1.92;;;;;;;;;;5008109;28;20054;-68
2022/05/13 13:47:50;;;;;;;9.13;2.60;;;;;;;;;;5013545;28;20053;-67
2022/05/13 13:50:24;;;;;;;7.53;3.25;;;;;;;;;;5011733;28;20050;-67
2022/05/13 13:52:53;;;;;;;11.35;2.65;;;;;;;;;;5013034;28;20054;-66
2022/05/13 13:55:38;;;;;;;5.25;2.30;;;;;;;;;;5013148;28;20052;-66
2022/05/13 13:58:16;;;;;;;6.65;2.97;;;;;;;;;;5012771;28;20088;-67
2022/05/13 14:00:46;;;;;;;13.23;2.50;;;;;;;;;;5012566;28;20394;-68
2022/05/13 14:03:16;;;;;;;10.48;2.60;;;;;;;;;;5013176;28;20050;-67
2022/05/13 14:05:54;;;;;;;10.23;2.88;;;;;;;;;;5012331;28;20052;-67
2022/05/13 14:08:23;;;;;;;7.47;3.58;;;;;;;;;;5011442;28;20132;-67
2022/05/13 14:11:03;;;;;;;6.28;2.63;;;;;;;;;;5011726;28;20042;-67
2022/05/13 14:13:42;;;;;;;9.13;3.05;;;;;;;;;;5012392;28;20144;-69
2022/05/13 14:16:19;;;;;;;7.80;2.92;;;;;;;;;;5012688;28;20054;-69
2022/05/13 14:19:16;;;;;;;7.63;2.60;;;;;;;;;;5020455;28;20523;-68
2022/05/13 14:21:48;;;;;;;4.93;2.65;;;;;;;;;;5012471;28;20101;-68
2022/05/13 14:24:30;;;;;;;7.53;3.13;;;;;;;;;;5012649;28;20132;-67
2022/05/13 14:27:00;;;;;;;5.28;2.67;;;;;;;;;;5012381;28;20046;-69
2022/05/13 14:29:33;;;;;;;12.65;3.10;;;;;;;;;;5012313;28;20065;-68
2022/05/13 14:32:07;;;;;;;8.52;2.47;;;;;;;;;;5012780;28;20080;-69
2022/05/13 14:34:39;;;;;;;7.88;3.80;;;;;;;;;;5011351;28;20034;-69
2022/05/13 14:37:12;;;;;;;9.80;2.30;;;;;;;;;;5011379;28;20403;-68
2022/05/13 14:39:49;;;;;;;10.00;3.05;;;;;;;;;;5011218;28;20046;-67
2022/05/13 14:42:34;;;;;;;6.15;2.10;;;;;;;;;;5012314;28;20073;-68
2022/05/13 14:45:18;;;;;;;7.30;2.83;;;;;;;;;;5014323;28;20049;-67
2022/05/13 14:47:45;;;;;;;13.63;3.95;;;;;;;;;;5016526;28;20100;-68
2022/05/13 14:50:18;;;;;;;5.25;2.75;;;;;;;;;;5016408;28;20038;-68
2022/05/13 14:52:50;;;;;;;5.90;2.50;;;;;;;;;;5011149;28;20049;-67
2022/05/13 14:55:33;;;;;;;9.38;3.08;;;;;;;;;;5014407;28;20077;-68
2022/05/13 14:58:02;;;;;;;;;;;;;;;;;;5016507;28;20042;-67
2022/05/13 15:00:31;;;;;;;3.80;2.28;;;;;;;;;;5008966;28;20385;-67
2022/05/13 15:03:05;;;;;;;8.57;2.90;;;;;;;;;;5015860;28;20068;-68
2022/05/13 15:05:44;;;;;;;12.25;3.22;;;;;;;;;;5016043;28;20057;-67
2022/05/13 15:08:27;;;;;;;4.65;2.50;;;;;;;;;;5015606;28;20408;-68
2022/05/13 15:10:55;;;;;;;21.75;3.85;;;;;;;;;;5015737;28;20048;-69
2022/05/13 15:13:25;;;;;;;11.00;2.83;;;;;;;;;;5015493;28;20038;-68
2022/05/13 15:15:54;;;;;;;5.15;2.38;;;;;;;;;;5015709;28;20124;-69
2022/05/13 15:18:32;;;;;;;9.30;3.30;;;;;;;;;;5014058;28;20061;-68
2022/05/13 15:21:00;;;;;;;14.32;2.75;;;;;;;;;;5010821;28;20081;-68
2022/05/13 15:23:29;;;;;;;6.15;2.28;;;;;;;;;;5015532;28;20046;-69
2022/05/13 15:25:56;;;;;;;5.05;2.33;;;;;;;;;;5015931;28;20068;-66
2022/05/13 15:28:26;;;;;;;10.82;2.70;;;;;;;;;;5014886;28;20058;-68
2022/05/13 15:30:58;;;;;;;9.20;2.63;;;;;;;;;;5014950;28;20128;-68
2022/05/13 15:33:27;;;;;;;12.82;2.78;;;;;;;;;;5015665;28;20045;-66
2022/05/13 15:35:55;;;;;;;9.80;2.90;;;;;;;;;;5007070;28;20416;-66
2022/05/13 15:38:25;;;;;;;4.55;2.40;;;;;;;;;;5004626;28;20454;-65
2022/05/13 15:40:53;;;;;;;7.70;2.03;;;;;;;;;;5014776;28;20133;-66
2022/05/13 15:43:21;;;;;;;5.50;2.30;;;;;;;;;;5010157;28;20072;-67
2022/05/13 15:45:53;;;;;;;5.72;2.55;;;;;;;;;;5012814;28;20061;-66
2022/05/13 15:48:22;;;;;;;10.13;3.65;;;;;;;;;;5014775;28;20073;-67